createdAt,value
2022-08-01T00:00:02.501Z,95439.94
2022-08-01T00:02:29.690Z,95451.47
2022-08-01T00:04:56.270Z,95443.16
2022-08-01T00:07:22.983Z,95453.59
2022-08-01T00:09:49.759Z,95455.25
2022-08-01T00:12:16.300Z,95447.44
2022-08-01T00:14:42.841Z,95450.44
2022-08-01T00:17:09.466Z,95449.91
2022-08-01T00:19:36.073Z,95441.88
2022-08-01T00:22:02.809Z,95452.31
2022-08-01T00:24:29.672Z,95459.53
2022-08-01T00:26:56.254Z,95449.88
2022-08-01T00:30:12.477Z,95450.94
2022-08-01T00:32:09.514Z,95454.41
2022-08-01T00:34:36.429Z,95456.81
2022-08-01T00:37:03.014Z,95454.66
2022-08-01T00:39:29.557Z,95457.38
2022-08-01T00:42:01.710Z,95454.97
2022-08-01T00:44:28.357Z,95459.03
2022-08-01T00:46:55.086Z,95455.00
2022-08-01T00:49:21.872Z,95454.97
2022-08-01T00:51:49.331Z,95450.44
2022-08-01T00:54:17.066Z,95463.56
2022-08-01T00:56:44.627Z,95459.84
2022-08-01T00:59:14.965Z,95458.22
2022-08-01T01:01:46.464Z,95456.88
2022-08-01T01:04:14.059Z,95456.34
2022-08-01T01:06:54.265Z,95458.22
2022-08-01T01:09:40.520Z,95454.97
2022-08-01T01:12:25.465Z,95464.31
2022-08-01T01:15:09.265Z,95450.66
2022-08-01T01:17:51.830Z,95451.41
2022-08-01T01:20:21.866Z,95453.53
2022-08-01T01:22:54.215Z,95453.75
2022-08-01T01:26:05.521Z,95457.22
2022-08-01T01:28:42.595Z,95458.53
2022-08-01T01:31:12.952Z,95456.66
2022-08-01T01:33:47.193Z,95454.78
2022-08-01T01:36:16.640Z,95445.50
2022-08-01T01:38:45.267Z,95452.72
2022-08-01T01:41:13.994Z,95462.38
2022-08-01T01:43:41.237Z,95446.88
2022-08-01T01:46:10.096Z,95442.34
2022-08-01T01:48:38.543Z,95442.88
2022-08-01T01:51:06.428Z,95450.91
2022-08-01T01:53:35.384Z,95458.16
2022-08-01T01:56:04.042Z,95455.47
2022-08-01T01:58:33.977Z,95454.41
2022-08-01T02:01:03.586Z,95450.09
2022-08-01T02:03:32.218Z,95444.47
2022-08-01T02:06:00.804Z,95443.16
2022-08-01T02:08:29.475Z,95449.31
2022-08-01T02:11:18.619Z,95444.78
2022-08-01T02:13:48.100Z,95445.00
2022-08-01T02:16:16.333Z,95439.66
2022-08-01T02:18:43.362Z,95447.16
2022-08-01T02:21:13.192Z,95450.31
2022-08-01T02:23:41.315Z,95448.41
2022-08-01T02:26:19.206Z,95442.47
2022-08-01T02:28:51.965Z,95445.97
2022-08-01T02:31:21.601Z,95456.63
2022-08-01T02:34:06.613Z,95442.69
2022-08-01T02:36:36.463Z,95448.31
2022-08-01T02:39:09.257Z,95455.59
2022-08-01T02:41:41.959Z,95449.41
2022-08-01T02:44:11.966Z,95460.66
2022-08-01T02:46:42.407Z,95465.75
2022-08-01T02:49:11.441Z,95463.59
2022-08-01T02:51:39.932Z,95466.81
2022-08-01T02:54:09.081Z,95475.16
2022-08-01T02:56:37.300Z,95462.59
2022-08-01T02:59:10.425Z,95477.31
2022-08-01T03:01:42.062Z,95474.06
2022-08-01T03:04:11.250Z,95474.84
2022-08-01T03:06:39.316Z,95467.34
2022-08-01T03:09:07.780Z,95471.69
2022-08-01T03:11:38.162Z,95472.50
2022-08-01T03:14:10.183Z,95471.75
2022-08-01T03:16:39.072Z,95471.50
2022-08-01T03:19:08.178Z,95471.22
2022-08-01T03:21:35.551Z,95471.75
2022-08-01T03:24:04.241Z,95476.56
2022-08-01T03:26:34.867Z,95474.41
2022-08-01T03:29:09.110Z,95470.94
2022-08-01T03:31:37.516Z,95480.34
2022-08-01T03:34:05.994Z,95480.34
2022-08-01T03:36:37.452Z,95484.66
2022-08-01T03:39:07.857Z,95481.47
2022-08-01T03:41:41.772Z,95485.78
2022-08-01T03:44:16.432Z,95483.03
2022-08-01T03:46:53.008Z,95495.88
2022-08-01T03:49:23.899Z,95495.06
2022-08-01T03:51:52.308Z,95490.53
2022-08-01T03:54:24.643Z,95496.13
2022-08-01T03:56:52.830Z,95500.66
2022-08-01T03:59:21.619Z,95488.63
2022-08-01T04:01:49.039Z,95500.13
2022-08-01T04:04:15.901Z,95499.63
2022-08-01T04:06:45.568Z,95505.75
2022-08-01T04:09:13.877Z,95502.34
2022-08-01T04:11:41.952Z,95510.91
2022-08-01T04:14:09.391Z,95512.81
2022-08-01T04:16:36.322Z,95516.78
2022-08-01T04:19:03.023Z,95509.31
2022-08-01T04:21:33.475Z,95512.28
2022-08-01T04:24:05.988Z,95514.13
2022-08-01T04:26:35.934Z,95512.03
2022-08-01T04:29:06.049Z,95518.47
2022-08-01T04:31:33.744Z,95509.38
2022-08-01T04:34:02.898Z,95515.28
2022-08-01T04:36:32.068Z,95512.59
2022-08-01T04:39:02.347Z,95519.25
2022-08-01T04:41:31.358Z,95512.59
2022-08-01T04:44:00.311Z,95507.25
2022-08-01T04:46:29.575Z,95501.38
2022-08-01T04:48:57.382Z,95507.28
2022-08-01T04:51:24.034Z,95506.19
2022-08-01T04:53:52.167Z,95496.59
2022-08-01T04:56:22.181Z,95500.91
2022-08-01T04:58:48.924Z,95510.56
2022-08-01T05:01:15.625Z,95503.63
2022-08-01T05:03:42.298Z,95507.91
2022-08-01T05:06:09.094Z,95495.63
2022-08-01T05:08:37.320Z,95505.28
2022-08-01T05:11:04.234Z,95495.94
2022-08-01T05:13:31.496Z,95501.31
2022-08-01T05:15:58.036Z,95505.31
2022-08-01T05:18:26.134Z,95502.38
2022-08-01T05:20:54.866Z,95504.00
2022-08-01T05:23:42.579Z,95504.28
2022-08-01T05:26:08.392Z,95500.81
2022-08-01T05:28:36.166Z,95497.34
2022-08-01T05:31:03.454Z,95494.13
2022-08-01T05:33:30.088Z,95501.94
2022-08-01T05:35:56.601Z,95501.41
2022-08-01T05:38:23.166Z,95510.81
2022-08-01T05:40:49.762Z,95510.03
2022-08-01T05:43:16.363Z,95508.44
2022-08-01T05:45:42.997Z,95517.59
2022-08-01T05:48:09.523Z,95521.34
2022-08-01T05:50:36.098Z,95523.50
2022-08-01T05:53:02.680Z,95517.88
2022-08-01T05:55:29.585Z,95531.81
2022-08-01T05:57:56.649Z,95531.28
2022-08-01T06:00:23.296Z,95525.94
2022-08-01T06:02:50.077Z,95536.66
2022-08-01T06:05:16.769Z,95532.91
2022-08-01T06:07:43.444Z,95533.44
2022-08-01T06:10:10.297Z,95539.63
2022-08-01T06:12:37.603Z,95551.19
2022-08-01T06:15:05.628Z,95549.81
2022-08-01T06:17:32.271Z,95549.56
2022-08-01T06:19:58.872Z,95556.56
2022-08-01T06:22:25.694Z,95553.88
2022-08-01T06:24:52.731Z,95562.47
2022-08-01T06:27:21.975Z,95556.56
2022-08-01T06:29:51.093Z,95558.72
2022-08-01T06:32:26.444Z,95554.44
2022-08-01T06:34:55.532Z,95561.41
2022-08-01T06:37:22.741Z,95555.50
2022-08-01T06:39:50.538Z,95568.91
2022-08-01T06:42:17.802Z,95566.22
2022-08-01T06:44:44.341Z,95573.22
2022-08-01T06:47:10.927Z,95574.81
2022-08-01T06:49:37.605Z,95582.88
2022-08-01T06:52:05.043Z,95583.41
2022-08-01T06:54:31.840Z,95578.31
2022-08-01T06:56:58.450Z,95575.34
2022-08-01T06:59:24.974Z,95586.09
2022-08-01T07:01:51.517Z,95593.88
2022-08-01T07:04:18.162Z,95593.88
2022-08-01T07:06:44.710Z,95588.78
2022-08-01T07:09:14.354Z,95594.16
2022-08-01T07:11:42.061Z,95591.47
2022-08-01T07:14:09.111Z,95601.66
2022-08-01T07:16:36.052Z,95601.94
2022-08-01T07:19:02.726Z,95598.19
2022-08-01T07:21:39.914Z,95608.66
2022-08-01T07:24:14.576Z,95611.34
2022-08-01T07:26:52.671Z,95618.31
2022-08-01T07:29:20.805Z,95623.94
2022-08-01T07:31:47.362Z,95620.44
2022-08-01T07:34:13.877Z,95631.44
2022-08-01T07:36:40.393Z,95624.75
2022-08-01T07:39:06.902Z,95626.88
2022-08-01T07:41:45.533Z,95630.63
2022-08-01T07:44:19.995Z,95621.53
2022-08-01T07:46:46.540Z,95617.75
2022-08-01T07:49:13.181Z,95622.56
2022-08-01T07:51:39.993Z,95624.97
2022-08-01T07:54:06.701Z,95626.59
2022-08-01T07:56:33.238Z,95627.94
2022-08-01T07:58:59.767Z,95624.75
2022-08-01T08:01:26.527Z,95624.97
2022-08-01T08:03:53.097Z,95622.06
2022-08-01T08:06:19.729Z,95620.97
2022-08-01T08:08:46.262Z,95624.75
2022-08-01T08:11:12.766Z,95621.53
2022-08-01T08:13:39.316Z,95623.66
2022-08-01T08:16:05.847Z,95628.78
2022-08-01T08:18:32.365Z,95618.59
2022-08-01T08:21:00.490Z,95621.81
2022-08-01T08:23:48.385Z,95625.31
2022-08-01T08:26:14.953Z,95624.25
2022-08-01T08:28:41.613Z,95621.84
2022-08-01T08:31:25.049Z,95623.72
2022-08-01T08:33:56.070Z,95621.56
2022-08-01T08:36:22.618Z,95619.44
2022-08-01T08:38:58.548Z,95616.75
2022-08-01T08:41:25.133Z,95616.47
2022-08-01T08:43:51.790Z,95617.81
2022-08-01T08:46:28.146Z,95624.78
2022-08-01T08:48:56.884Z,95614.84
2022-08-01T08:51:28.025Z,95621.56
2022-08-01T08:53:58.389Z,95616.44
2022-08-01T08:56:28.332Z,95618.31
2022-08-01T08:58:55.408Z,95619.63
2022-08-01T09:01:23.018Z,95622.31
2022-08-01T09:03:49.874Z,95623.59
2022-08-01T09:06:16.481Z,95618.75
2022-08-01T09:08:43.111Z,95633.75
2022-08-01T09:11:09.774Z,95634.03
2022-08-01T09:13:36.456Z,95633.50
2022-08-01T09:16:03.138Z,95633.19
2022-08-01T09:18:43.782Z,95634.75
2022-08-01T09:21:17.921Z,95653.03
2022-08-01T09:23:53.253Z,95640.06
2022-08-01T09:26:41.769Z,95637.06
2022-08-01T09:29:17.703Z,95643.25
2022-08-01T09:32:07.293Z,95648.59
2022-08-01T09:34:34.102Z,95635.66
2022-08-01T09:37:03.574Z,95638.34
2022-08-01T09:39:30.007Z,95635.09
2022-08-01T09:41:59.635Z,95646.94
2022-08-01T09:44:54.582Z,95653.91
2022-08-01T09:47:23.947Z,95652.81
2022-08-01T09:49:59.309Z,95646.06
2022-08-01T09:52:28.934Z,95659.50
2022-08-01T09:54:59.454Z,95663.84
2022-08-01T09:57:27.071Z,95661.63
2022-08-01T09:59:59.097Z,95648.44
2022-08-01T10:02:34.789Z,95657.00
2022-08-01T10:05:08.287Z,95653.78
2022-08-01T10:07:43.575Z,95657.22
2022-08-01T10:10:16.514Z,95655.84
2022-08-01T10:12:45.163Z,95646.69
2022-08-01T10:15:15.864Z,95646.41
2022-08-01T10:17:57.339Z,95633.47
2022-08-01T10:20:32.429Z,95639.09
2022-08-01T10:23:05.986Z,95639.31
2022-08-01T10:25:43.827Z,95655.75
2022-08-01T10:28:23.946Z,95637.44
2022-08-01T10:30:53.235Z,95636.84
2022-08-01T10:33:50.584Z,95639.44
2022-08-01T10:36:10.640Z,95637.25
2022-08-01T10:38:37.646Z,95647.94
2022-08-01T10:41:08.554Z,95640.63
2022-08-01T10:43:35.817Z,95628.38
2022-08-01T10:46:05.046Z,95643.44
2022-08-01T10:48:48.074Z,95631.78
2022-08-01T10:51:17.816Z,95623.88
2022-08-01T10:54:06.841Z,95630.78
2022-08-01T10:56:48.953Z,95624.22
2022-08-01T10:59:50.385Z,95634.16
2022-08-01T11:02:09.366Z,95640.06
2022-08-01T11:04:41.845Z,95638.63
2022-08-01T11:07:25.718Z,95643.53
2022-08-01T11:10:16.110Z,95639.47
2022-08-01T11:12:44.293Z,95630.09
2022-08-01T11:15:10.954Z,95628.91
2022-08-01T11:17:45.243Z,95630.81
2022-08-01T11:20:19.413Z,95632.03
2022-08-01T11:23:02.198Z,95632.94
2022-08-01T11:26:05.813Z,95621.28
2022-08-01T11:28:32.402Z,95626.91
2022-08-01T11:31:14.304Z,95619.03
2022-08-01T11:33:41.360Z,95624.06
2022-08-01T11:36:11.040Z,95623.56
2022-08-01T11:38:48.908Z,95617.50
2022-08-01T11:41:15.385Z,95623.34
2022-08-01T11:44:01.499Z,95628.75
2022-08-01T11:46:46.910Z,95635.75
2022-08-01T11:49:33.686Z,95627.56
2022-08-01T11:52:25.328Z,95621.72
2022-08-01T11:55:16.623Z,95627.81
2022-08-01T11:57:43.425Z,95618.53
2022-08-01T12:00:18.903Z,95621.09
2022-08-01T12:02:59.039Z,95623.53
2022-08-01T12:05:27.435Z,95609.84
2022-08-01T12:07:56.267Z,95624.44
2022-08-01T12:10:24.338Z,95624.22
2022-08-01T12:12:56.461Z,95628.03
2022-08-01T12:15:25.101Z,95620.81
2022-08-01T12:17:59.751Z,95621.34
2022-08-01T12:20:32.010Z,95619.72
2022-08-01T12:23:01.056Z,95600.88
2022-08-01T12:25:27.766Z,95616.81
2022-08-01T12:27:56.613Z,95620.81
2022-08-01T12:30:25.442Z,95624.34
2022-08-01T12:32:54.032Z,95612.06
2022-08-01T12:35:24.319Z,95619.56
2022-08-01T12:37:57.003Z,95620.47
2022-08-01T12:40:24.563Z,95612.47
2022-08-01T12:42:53.385Z,95612.03
2022-08-01T12:45:22.402Z,95622.41
2022-08-01T12:47:49.664Z,95624.03
2022-08-01T12:50:20.751Z,95618.13
2022-08-01T12:52:48.398Z,95610.59
2022-08-01T12:55:16.343Z,95614.09
2022-08-01T12:57:45.629Z,95612.13
2022-08-01T13:00:16.142Z,95609.63
2022-08-01T13:02:43.554Z,95608.44
2022-08-01T13:05:11.235Z,95604.84
2022-08-01T13:07:45.579Z,95617.25
2022-08-01T13:10:14.085Z,95602.25
2022-08-01T13:12:42.294Z,95616.25
2022-08-01T13:15:19.612Z,95604.66
2022-08-01T13:17:46.266Z,95594.25
2022-08-01T13:20:25.999Z,95596.69
2022-08-01T13:22:52.905Z,95600.69
2022-08-01T13:25:22.650Z,95591.50
2022-08-01T13:27:53.786Z,95606.91
2022-08-01T13:30:21.386Z,95605.25
2022-08-01T13:33:00.526Z,95597.13
2022-08-01T13:35:28.600Z,95602.13
2022-08-01T13:37:55.743Z,95607.34
2022-08-01T13:40:27.952Z,95607.31
2022-08-01T13:42:57.558Z,95599.72
2022-08-01T13:45:24.645Z,95603.28
2022-08-01T13:48:11.704Z,95607.13
2022-08-01T13:50:39.879Z,95600.59
2022-08-01T13:53:06.410Z,95603.59
2022-08-01T13:55:35.316Z,95614.13
2022-08-01T13:58:02.120Z,95617.44
2022-08-01T14:00:28.754Z,95625.06
2022-08-01T14:02:55.279Z,95613.72
2022-08-01T14:05:21.818Z,95618.06
2022-08-01T14:07:48.571Z,95601.50
2022-08-01T14:10:19.961Z,95613.53
2022-08-01T14:12:50.787Z,95622.53
2022-08-01T14:15:36.477Z,95626.25
2022-08-01T14:18:05.880Z,95626.34
2022-08-01T14:20:33.301Z,95616.13
2022-08-01T14:23:00.170Z,95640.34
2022-08-01T14:26:00.826Z,95632.31
2022-08-01T14:28:13.466Z,95621.84
2022-08-01T14:30:42.159Z,95628.19
2022-08-01T14:33:08.680Z,95634.41
2022-08-01T14:36:01.548Z,95638.09
2022-08-01T14:38:31.423Z,95646.44
2022-08-01T14:41:00.607Z,95642.97
2022-08-01T14:43:32.787Z,95650.66
2022-08-01T14:46:00.463Z,95642.53
2022-08-01T14:48:27.166Z,95641.72
2022-08-01T14:50:53.891Z,95649.06
2022-08-01T14:53:21.104Z,95653.56
2022-08-01T14:55:47.779Z,95648.75
2022-08-01T14:58:14.432Z,95648.25
2022-08-01T15:00:41.196Z,95653.47
2022-08-01T15:03:07.900Z,95652.53
2022-08-01T15:05:34.450Z,95655.66
2022-08-01T15:08:00.987Z,95655.75
2022-08-01T15:10:28.309Z,95653.16
2022-08-01T15:12:54.872Z,95660.94
2022-08-01T15:15:22.098Z,95659.44
2022-08-01T15:17:48.676Z,95664.06
2022-08-01T15:20:15.259Z,95656.84
2022-08-01T15:22:41.863Z,95659.25
2022-08-01T15:25:08.502Z,95660.03
2022-08-01T15:27:35.063Z,95659.03
2022-08-01T15:30:02.008Z,95655.22
2022-08-01T15:32:28.530Z,95661.22
2022-08-01T15:34:55.268Z,95661.22
2022-08-01T15:37:22.470Z,95656.91
2022-08-01T15:39:49.888Z,95663.13
2022-08-01T15:42:25.692Z,95659.97
2022-08-01T15:44:53.543Z,95659.19
2022-08-01T15:47:20.157Z,95653.50
2022-08-01T15:49:46.730Z,95645.16
2022-08-01T15:52:21.363Z,95659.75
2022-08-01T15:54:50.273Z,95657.13
2022-08-01T15:57:17.197Z,95649.03
2022-08-01T15:59:43.957Z,95646.03
2022-08-01T16:02:11.198Z,95652.25
2022-08-01T16:04:38.765Z,95650.56
2022-08-01T16:07:06.288Z,95644.03
2022-08-01T16:09:33.090Z,95648.72
2022-08-01T16:11:59.690Z,95652.31
2022-08-01T16:14:26.310Z,95649.72
2022-08-01T16:16:54.966Z,95654.91
2022-08-01T16:19:21.920Z,95654.19
2022-08-01T16:21:48.616Z,95648.69
2022-08-01T16:24:15.833Z,95658.34
2022-08-01T16:26:43.195Z,95654.81
2022-08-01T16:29:09.770Z,95649.94
2022-08-01T16:31:51.403Z,95654.00
2022-08-01T16:34:22.961Z,95659.16
2022-08-01T16:36:50.731Z,95660.22
2022-08-01T16:39:22.597Z,95658.63
2022-08-01T16:41:55.192Z,95652.94
2022-08-01T16:44:33.344Z,95663.44
2022-08-01T16:47:05.259Z,95661.25
2022-08-01T16:49:32.404Z,95650.09
2022-08-01T16:51:59.057Z,95661.47
2022-08-01T16:54:26.422Z,95661.25
2022-08-01T16:57:07.865Z,95654.81
2022-08-01T16:59:40.927Z,95657.72
2022-08-01T17:02:08.894Z,95649.53
2022-08-01T17:04:38.839Z,95655.31
2022-08-01T17:07:06.640Z,95661.25
2022-08-01T17:09:34.321Z,95659.94
2022-08-01T17:12:00.886Z,95655.06
2022-08-01T17:14:28.738Z,95667.09
2022-08-01T17:16:55.343Z,95668.09
2022-08-01T17:19:32.760Z,95671.84
2022-08-01T17:22:00.004Z,95667.50
2022-08-01T17:24:26.552Z,95664.81
2022-08-01T17:26:53.195Z,95667.81
2022-08-01T17:29:19.688Z,95669.22
2022-08-01T17:31:46.788Z,95665.19
2022-08-01T17:34:13.383Z,95669.88
2022-08-01T17:36:39.920Z,95669.94
2022-08-01T17:39:08.804Z,95679.53
2022-08-01T17:41:35.319Z,95670.28
2022-08-01T17:44:02.170Z,95680.38
2022-08-01T17:46:28.760Z,95674.22
2022-08-01T17:48:55.302Z,95675.88
2022-08-01T17:51:22.946Z,95680.28
2022-08-01T17:53:56.692Z,95668.94
2022-08-01T17:56:25.771Z,95684.13
2022-08-01T17:58:52.564Z,95674.97
2022-08-01T18:01:20.025Z,95679.13
2022-08-01T18:03:46.992Z,95685.97
2022-08-01T18:06:17.150Z,95680.16
2022-08-01T18:08:47.104Z,95683.25
2022-08-01T18:11:15.013Z,95684.69
2022-08-01T18:13:41.648Z,95681.00
2022-08-01T18:16:11.230Z,95691.59
2022-08-01T18:18:39.134Z,95691.94
2022-08-01T18:21:06.523Z,95688.25
2022-08-01T18:23:34.072Z,95686.97
2022-08-01T18:26:02.418Z,95688.66
2022-08-01T18:28:35.100Z,95685.78
2022-08-01T18:31:08.427Z,95697.66
2022-08-01T18:33:36.468Z,95691.53
2022-08-01T18:36:04.516Z,95697.00
2022-08-01T18:38:35.193Z,95703.78
2022-08-01T18:41:05.682Z,95704.63
2022-08-01T18:43:32.287Z,95706.78
2022-08-01T18:45:58.916Z,95714.09
2022-08-01T18:48:25.461Z,95714.66
2022-08-01T18:50:54.047Z,95718.19
2022-08-01T18:53:22.347Z,95716.59
2022-08-01T18:55:48.940Z,95720.41
2022-08-01T18:58:15.478Z,95733.09
2022-08-01T19:00:42.344Z,95734.22
2022-08-01T19:03:09.824Z,95740.69
2022-08-01T19:05:37.335Z,95741.50
2022-08-01T19:08:07.618Z,95737.47
2022-08-01T19:10:39.568Z,95739.88
2022-08-01T19:13:07.845Z,95746.59
2022-08-01T19:15:35.456Z,95748.47
2022-08-01T19:18:03.114Z,95749.84
2022-08-01T19:20:29.873Z,95748.75
2022-08-01T19:22:56.726Z,95749.59
2022-08-01T19:25:24.041Z,95749.59
2022-08-01T19:27:50.891Z,95753.63
2022-08-01T19:30:18.802Z,95756.31
2022-08-01T19:32:47.555Z,95756.63
2022-08-01T19:35:16.867Z,95759.03
2022-08-01T19:37:47.126Z,95763.34
2022-08-01T19:40:27.151Z,95768.75
2022-08-01T19:42:54.744Z,95768.50
2022-08-01T19:45:21.638Z,95766.88
2022-08-01T19:47:51.809Z,95774.41
2022-08-01T19:50:28.102Z,95773.66
2022-08-01T19:52:57.649Z,95779.53
2022-08-01T19:55:25.239Z,95784.38
2022-08-01T19:58:17.279Z,95777.94
2022-08-01T20:00:40.578Z,95785.50
2022-08-01T20:03:09.648Z,95782.25
2022-08-01T20:05:37.384Z,95776.34
2022-08-01T20:08:06.618Z,95784.41
2022-08-01T20:10:33.990Z,95779.31
2022-08-01T20:13:01.397Z,95786.53
2022-08-01T20:15:29.344Z,95787.09
2022-08-01T20:17:59.395Z,95781.44
2022-08-01T20:20:27.002Z,95781.16
2022-08-01T20:22:57.421Z,95783.84
2022-08-01T20:25:33.608Z,95778.47
2022-08-01T20:28:09.536Z,95783.56
2022-08-01T20:30:36.847Z,95781.97
2022-08-01T20:33:06.480Z,95786.50
2022-08-01T20:35:51.946Z,95790.78
2022-08-01T20:38:22.848Z,95786.47
2022-08-01T20:40:51.718Z,95789.41
2022-08-01T20:43:20.710Z,95792.38
2022-08-01T20:45:48.293Z,95788.28
2022-08-01T20:48:17.382Z,95790.16
2022-08-01T20:51:04.578Z,95786.88
2022-08-01T20:53:42.471Z,95789.28
2022-08-01T20:56:21.005Z,95790.63
2022-08-01T20:59:09.834Z,95786.31
2022-08-01T21:01:44.813Z,95786.25
2022-08-01T21:04:23.266Z,95794.06
2022-08-01T21:07:09.621Z,95793.78
2022-08-01T21:09:39.205Z,95798.31
2022-08-01T21:12:08.843Z,95802.59
2022-08-01T21:14:49.393Z,95799.91
2022-08-01T21:17:35.241Z,95796.44
2022-08-01T21:20:06.512Z,95798.59
2022-08-01T21:22:38.344Z,95796.66
2022-08-01T21:25:08.107Z,95803.09
2022-08-01T21:27:37.331Z,95805.25
2022-08-01T21:30:08.239Z,95810.34
2022-08-01T21:32:36.708Z,95808.47
2022-08-01T21:35:05.615Z,95801.78
2022-08-01T21:37:42.621Z,95806.28
2022-08-01T21:40:10.578Z,95809.53
2022-08-01T21:42:39.071Z,95799.59
2022-08-01T21:45:06.743Z,95792.63
2022-08-01T21:47:33.601Z,95811.41
2022-08-01T21:50:04.917Z,95813.53
2022-08-01T21:52:43.261Z,95803.06
2022-08-01T21:55:15.842Z,95806.56
2022-08-01T21:58:07.360Z,95816.47
2022-08-01T22:00:37.045Z,95820.47
2022-08-01T22:03:45.436Z,95809.75
2022-08-01T22:06:16.821Z,95810.25
2022-08-01T22:09:03.415Z,95817.25
2022-08-01T22:11:33.980Z,95807.88
2022-08-01T22:14:05.225Z,95807.59
2022-08-01T22:16:33.978Z,95815.66
2022-08-01T22:19:02.304Z,95811.91
2022-08-01T22:21:29.927Z,95807.03
2022-08-01T22:23:57.525Z,95806.78
2022-08-01T22:26:29.123Z,95805.94
2022-08-01T22:28:56.476Z,95804.31
2022-08-01T22:31:23.740Z,95803.25
2022-08-01T22:33:51.283Z,95806.16
2022-08-01T22:36:20.379Z,95807.47
2022-08-01T22:38:47.389Z,95803.19
2022-08-01T22:41:19.296Z,95805.03
2022-08-01T22:44:10.129Z,95804.75
2022-08-01T22:47:00.171Z,95807.44
2022-08-01T22:49:45.313Z,95808.25
2022-08-01T22:52:18.126Z,95806.34
2022-08-01T22:54:50.155Z,95808.75
2022-08-01T22:57:25.362Z,95808.97
2022-08-01T23:00:00.415Z,95806.25
2022-08-01T23:02:30.705Z,95806.25
2022-08-01T23:05:06.648Z,95814.84
2022-08-01T23:07:44.175Z,95811.88
2022-08-01T23:10:10.790Z,95797.66
2022-08-01T23:12:38.992Z,95799.03
2022-08-01T23:15:06.846Z,95806.78
2022-08-01T23:17:33.378Z,95809.44
2022-08-01T23:20:06.822Z,95808.94
2022-08-01T23:22:35.563Z,95808.38
2022-08-01T23:25:06.710Z,95810.97
2022-08-01T23:28:03.823Z,95816.34
2022-08-01T23:30:33.416Z,95813.13
2022-08-01T23:33:00.465Z,95815.78
2022-08-01T23:35:27.941Z,95814.69
2022-08-01T23:38:02.231Z,95819.00
2022-08-01T23:40:34.393Z,95819.53
2022-08-01T23:43:03.024Z,95823.34
2022-08-01T23:45:58.586Z,95812.63
2022-08-01T23:48:16.411Z,95818.56
2022-08-01T23:50:43.167Z,95821.00
2022-08-01T23:53:09.750Z,95818.03
2022-08-01T23:55:37.863Z,95824.94
2022-08-01T23:58:06.705Z,95816.34
